Time;durP1;ratioP1;P1;durP2;ratioP2;P2;SDS_P1;SDS_P2;PMS_P1;PMS_P2;Temp;Humidity;BMP_temperature;BMP_pressure;BME280_temperature;BME280_humidity;BME280_pressure;Samples;Min_cycle;Max_cycle;Signal;HPM_P1;HPM_P2
2023/05/23 00:01:36;;;;;;;21.38;19.67;;;;;;;18.03;47.62;99980.78;4941601;28;97319;-76
2023/05/23 00:04:03;;;;;;;20.65;18.95;;;;;;;18.09;47.26;99980.34;4957699;28;96874;-76
2023/05/23 00:06:28;;;;;;;20.73;18.77;;;;;;;17.83;47.29;99971.56;4974316;28;97420;-76
2023/05/23 00:08:54;;;;;;;21.77;19.80;;;;;;;17.85;47.32;99973.16;4962903;28;101253;-76
2023/05/23 00:11:25;;;;;;;21.27;19.55;;;;;;;17.80;47.86;99958.50;4938294;28;96880;-76
2023/05/23 00:13:54;;;;;;;21.27;19.77;;;;;;;17.88;47.89;99964.13;4974220;28;97406;-76
2023/05/23 00:16:21;;;;;;;20.80;19.20;;;;;;;17.81;48.18;99973.47;4954155;28;101322;-76
2023/05/23 00:18:49;;;;;;;20.83;19.20;;;;;;;17.88;47.84;99980.06;4949413;28;100558;-76
2023/05/23 00:21:15;;;;;;;20.70;18.90;;;;;;;17.88;48.13;99974.75;4953486;28;97074;-76
2023/05/23 00:23:41;;;;;;;21.38;19.60;;;;;;;17.80;48.21;99963.81;4966678;28;97227;-76
2023/05/23 00:26:08;;;;;;;21.05;19.35;;;;;;;17.61;48.40;99946.47;4957045;28;101048;-76
2023/05/23 00:28:33;;;;;;;20.35;18.85;;;;;;;17.66;48.18;99962.09;4941071;28;101099;-77
2023/05/23 00:30:59;;;;;;;21.02;19.13;;;;;;;17.66;48.34;99964.75;4972811;28;97331;-76
2023/05/23 00:33:25;;;;;;;21.65;19.55;;;;;;;17.67;48.29;99962.94;4958087;28;97140;-76
2023/05/23 00:35:51;;;;;;;21.23;19.70;;;;;;;17.67;48.42;99962.94;4973849;28;97800;-76
2023/05/23 00:38:16;;;;;;;21.20;19.30;;;;;;;17.59;48.57;99948.38;4940595;28;101047;-76
2023/05/23 00:40:42;;;;;;;20.73;18.75;;;;;;;17.56;48.75;99953.06;4940673;28;97224;-76
2023/05/23 00:43:08;;;;;;;21.30;19.42;;;;;;;17.37;48.57;99929.59;4957065;28;97865;-76
2023/05/23 00:45:33;;;;;;;21.10;18.95;;;;;;;17.59;49.13;99966.09;4956744;28;101013;-76
2023/05/23 00:47:59;;;;;;;20.70;19.05;;;;;;;17.50;48.95;99958.78;4964334;28;101158;-77
2023/05/23 00:50:28;;;;;;;20.60;18.85;;;;;;;17.44;49.35;99962.69;4973120;28;97346;-76
2023/05/23 00:52:55;;;;;;;21.75;19.65;;;;;;;17.32;49.37;99950.28;4941381;28;97257;-76
2023/05/23 00:55:20;;;;;;;21.30;19.58;;;;;;;17.38;49.18;99956.00;4939311;28;101539;-76
2023/05/23 00:57:47;;;;;;;21.80;19.90;;;;;;;17.14;49.21;99929.34;4956556;28;100976;-76
2023/05/23 01:00:14;;;;;;;21.10;19.48;;;;;;;17.02;49.84;99956.69;4956424;28;97217;-76
2023/05/23 01:02:45;;;;;;;21.83;19.85;;;;;;;16.93;49.33;99921.03;4941210;28;96959;-76
2023/05/23 01:05:13;;;;;;;21.63;19.98;;;;;;;17.04;49.40;99930.91;4956222;28;101607;-76
2023/05/23 01:07:39;;;;;;;20.88;19.15;;;;;;;17.16;49.67;99958.41;4940985;28;101201;-76
2023/05/23 01:10:06;;;;;;;22.52;20.25;;;;;;;17.20;49.66;99946.66;4956086;28;97273;-76
2023/05/23 01:12:34;;;;;;;22.88;20.80;;;;;;;17.09;49.98;99925.31;4973955;28;97294;-76
2023/05/23 01:15:10;;;;;;;23.23;20.75;;;;;;;17.25;50.02;99946.31;4956014;28;98365;-76
2023/05/23 01:17:55;;;;;;;22.38;20.55;;;;;;;17.12;49.83;99941.84;4957479;28;98310;-76
2023/05/23 01:20:24;;;;;;;21.45;19.75;;;;;;;17.18;49.41;99944.09;4939022;28;97497;-76
2023/05/23 01:22:59;;;;;;;21.48;19.48;;;;;;;17.19;49.83;99955.53;4957145;28;97537;-76
2023/05/23 01:25:58;;;;;;;20.48;18.85;;;;;;;17.08;50.14;99935.06;4972795;28;101335;-76
2023/05/23 01:28:28;;;;;;;22.50;20.48;;;;;;;17.15;50.00;99952.25;4990916;28;98548;-76
2023/05/23 01:30:57;;;;;;;26.00;19.95;;;;;;;17.15;50.40;99954.06;4940063;28;97189;-76
2023/05/23 01:33:23;;;;;;;21.17;19.40;;;;;;;17.09;49.92;99949.19;4956334;28;96871;-76
2023/05/23 01:35:50;;;;;;;21.48;19.65;;;;;;;17.06;50.11;99952.88;4940513;28;101069;-76
2023/05/23 01:38:15;;;;;;;20.85;19.10;;;;;;;17.06;49.90;99939.63;4955090;28;101021;-76
2023/05/23 01:40:41;;;;;;;22.02;20.20;;;;;;;16.98;50.33;99939.28;4956970;28;97085;-76
2023/05/23 01:43:08;;;;;;;21.67;19.95;;;;;;;16.96;50.45;99936.75;4957412;28;96868;-76
2023/05/23 01:45:34;;;;;;;21.55;19.55;;;;;;;16.97;50.77;99942.88;4938602;28;101240;-76
2023/05/23 01:48:01;;;;;;;21.75;19.80;;;;;;;16.87;50.17;99920.56;4955225;28;101800;-77
2023/05/23 01:50:27;;;;;;;22.35;20.38;;;;;;;16.92;50.53;99929.09;4939288;28;96802;-76
2023/05/23 01:52:54;;;;;;;21.48;19.58;;;;;;;16.98;50.50;99940.13;4940456;28;97154;-76
2023/05/23 01:55:23;;;;;;;24.52;19.38;;;;;;;16.91;50.54;99924.75;4939036;28;101316;-76
2023/05/23 01:57:54;;;;;;;23.10;20.63;;;;;;;16.96;50.82;99934.09;4953216;28;101308;-76
2023/05/23 02:00:20;;;;;;;21.40;19.40;;;;;;;16.91;50.87;99928.25;4938255;28;96946;-76
2023/05/23 02:02:46;;;;;;;23.08;20.67;;;;;;;16.80;50.80;99920.16;4956793;28;96954;-76
2023/05/23 02:05:14;;;;;;;21.20;19.40;;;;;;;16.77;51.23;99917.69;4948155;28;101614;-77
2023/05/23 02:07:40;;;;;;;21.67;19.58;;;;;;;16.72;51.44;99919.75;4956799;28;98561;-77
2023/05/23 02:10:09;;;;;;;22.05;20.25;;;;;;;16.63;51.16;99912.41;4971226;28;96975;-76
2023/05/23 02:12:34;;;;;;;22.00;20.13;;;;;;;16.66;51.15;99913.06;4972569;28;97427;-76
2023/05/23 02:15:00;;;;;;;21.70;20.02;;;;;;;16.64;51.31;99911.47;4955843;28;101529;-76
2023/05/23 02:17:26;;;;;;;21.58;19.85;;;;;;;16.54;51.29;99905.91;4939255;28;99990;-77
2023/05/23 02:19:51;;;;;;;21.58;19.88;;;;;;;16.49;51.55;99903.59;4939185;28;97120;-76
2023/05/23 02:22:17;;;;;;;22.42;20.65;;;;;;;16.52;51.49;99906.03;4972311;28;97054;-76
2023/05/23 02:24:42;;;;;;;20.73;19.05;;;;;;;16.48;51.67;99888.63;4955667;28;101057;-76
2023/05/23 02:27:08;;;;;;;22.70;20.50;;;;;;;16.28;52.28;99900.50;4966076;28;98444;-76
2023/05/23 02:29:33;;;;;;;22.00;19.98;;;;;;;16.42;51.97;99889.03;4955731;28;97335;-76
2023/05/23 02:31:59;;;;;;;21.25;19.55;;;;;;;16.30;52.03;99888.03;4955499;28;96936;-76
2023/05/23 02:34:25;;;;;;;22.35;20.33;;;;;;;16.38;51.81;99897.28;4937897;28;101728;-76
2023/05/23 02:36:50;;;;;;;22.42;20.42;;;;;;;16.20;52.10;99870.16;4939689;28;101279;-77
2023/05/23 02:39:16;;;;;;;22.45;20.42;;;;;;;16.37;51.78;99901.72;4946387;28;97042;-76
2023/05/23 02:41:43;;;;;;;20.70;19.15;;;;;;;16.20;51.94;99863.09;4955784;28;97223;-76
2023/05/23 02:44:09;;;;;;;20.52;18.92;;;;;;;16.28;51.96;99884.63;4938660;28;101887;-77
2023/05/23 02:46:34;;;;;;;21.95;20.05;;;;;;;16.32;51.74;99895.00;4958303;28;101387;-77
2023/05/23 02:49:02;;;;;;;23.33;21.33;;;;;;;16.23;52.00;99899.09;4929425;28;96760;-76
2023/05/23 02:51:27;;;;;;;22.63;20.58;;;;;;;16.21;52.16;99891.28;4972084;28;96876;-76
2023/05/23 02:53:53;;;;;;;22.10;19.65;;;;;;;16.20;52.21;99889.59;4939008;28;100973;-76
2023/05/23 02:56:21;;;;;;;21.88;20.08;;;;;;;16.08;52.66;99887.69;4938887;28;101297;-76
2023/05/23 02:58:46;;;;;;;21.48;19.83;;;;;;;16.17;52.27;99894.19;4950524;28;96833;-77
2023/05/23 03:01:12;;;;;;;21.90;19.88;;;;;;;16.03;52.27;99858.88;4952256;28;96822;-77
2023/05/23 03:03:38;;;;;;;22.17;20.45;;;;;;;16.11;52.21;99876.06;4935160;28;101272;-77
2023/05/23 03:06:05;;;;;;;22.08;20.35;;;;;;;15.96;52.45;99854.91;4951973;28;100636;-77
2023/05/23 03:08:31;;;;;;;22.17;20.40;;;;;;;15.92;53.16;99877.25;4947010;28;98163;-76
2023/05/23 03:10:56;;;;;;;23.08;21.38;;;;;;;15.73;53.09;99845.78;4950336;28;97259;-76
2023/05/23 03:13:22;;;;;;;21.67;19.67;;;;;;;15.78;52.68;99849.00;4958943;28;98078;-76
2023/05/23 03:15:47;;;;;;;22.90;20.88;;;;;;;15.93;53.27;99860.41;4955428;28;101593;-76
2023/05/23 03:18:13;;;;;;;22.63;20.52;;;;;;;15.69;53.99;99869.91;4936849;28;97126;-77
2023/05/23 03:20:38;;;;;;;21.33;19.75;;;;;;;15.85;52.92;99857.38;4957009;28;97244;-76
2023/05/23 03:23:04;;;;;;;21.75;20.05;;;;;;;15.86;53.48;99864.41;4970546;28;98597;-77
2023/05/23 03:25:29;;;;;;;22.70;20.65;;;;;;;15.98;53.04;99858.31;4958425;28;97309;-76
2023/05/23 03:27:55;;;;;;;20.08;18.48;;;;;;;16.01;52.93;99846.69;4957333;28;97434;-76
2023/05/23 03:30:20;;;;;;;21.60;19.90;;;;;;;16.01;53.22;99860.78;4973948;28;97167;-76
2023/05/23 03:32:46;;;;;;;21.52;19.75;;;;;;;15.92;53.51;99866.66;4967690;28;101173;-77
2023/05/23 03:35:12;;;;;;;23.00;20.75;;;;;;;15.97;53.34;99866.34;4957375;28;101291;-76
2023/05/23 03:37:38;;;;;;;22.02;19.88;;;;;;;15.97;53.21;99856.63;4953964;28;97015;-76
2023/05/23 03:40:06;;;;;;;22.38;20.73;;;;;;;16.03;53.35;99866.00;4954226;28;97383;-76
2023/05/23 03:42:31;;;;;;;22.02;20.00;;;;;;;15.94;53.13;99837.44;4953620;28;101659;-76
2023/05/23 03:44:57;;;;;;;22.40;19.63;;;;;;;15.91;53.52;99857.03;4952446;28;97861;-76
2023/05/23 03:47:25;;;;;;;20.77;18.85;;;;;;;15.94;53.63;99874.47;4957709;28;96769;-77
2023/05/23 03:49:52;;;;;;;20.88;19.17;;;;;;;16.11;53.16;99862.81;4944959;28;98246;-77
2023/05/23 03:52:18;;;;;;;21.90;20.20;;;;;;;15.51;53.91;99832.19;4941245;28;101084;-77
2023/05/23 03:54:44;;;;;;;27.45;22.50;;;;;;;15.88;53.95;99862.47;4941113;28;99536;-76
2023/05/23 03:57:09;;;;;;;22.65;20.27;;;;;;;16.05;53.72;99867.56;4958104;28;96883;-77
2023/05/23 03:59:36;;;;;;;22.38;20.58;;;;;;;15.97;53.59;99854.00;4938765;28;97480;-76
2023/05/23 04:02:05;;;;;;;22.90;20.95;;;;;;;16.01;53.58;99865.22;4942043;28;100956;-77
2023/05/23 04:04:30;;;;;;;22.65;20.73;;;;;;;15.82;54.36;99870.81;4957756;28;100870;-76
2023/05/23 04:06:57;;;;;;;25.42;21.27;;;;;;;15.69;54.41;99859.31;4974719;28;97660;-76
2023/05/23 04:09:23;;;;;;;23.42;21.63;;;;;;;15.82;54.39;99871.69;4973775;28;97162;-76
2023/05/23 04:11:50;;;;;;;23.13;20.88;;;;;;;15.95;54.14;99868.25;4954829;28;101179;-76
2023/05/23 04:14:19;;;;;;;22.52;20.67;;;;;;;16.05;53.97;99864.06;4940625;28;100985;-77
2023/05/23 04:16:47;;;;;;;22.25;20.45;;;;;;;15.94;54.03;99856.84;4958078;28;97150;-77
2023/05/23 04:19:12;;;;;;;24.20;22.25;;;;;;;16.11;53.91;99852.22;4957398;28;96906;-76
2023/05/23 04:21:38;;;;;;;24.08;21.80;;;;;;;16.31;53.27;99859.75;4948701;28;98121;-76
2023/05/23 04:24:07;;;;;;;23.15;20.88;;;;;;;16.23;53.58;99854.09;4955460;28;101806;-77
2023/05/23 04:26:35;;;;;;;23.38;21.50;;;;;;;16.45;53.59;99850.91;4933027;28;96910;-77
2023/05/23 04:29:03;;;;;;;25.13;22.10;;;;;;;16.67;52.85;99855.63;4971271;28;97576;-76
2023/05/23 04:31:30;;;;;;;23.90;21.95;;;;;;;16.79;52.44;99851.34;4954984;28;101639;-76
2023/05/23 04:33:56;;;;;;;22.52;20.67;;;;;;;17.05;52.35;99854.88;4956145;28;101383;-77
2023/05/23 04:36:22;;;;;;;23.35;21.25;;;;;;;17.48;51.16;99851.91;4964507;28;96915;-77
2023/05/23 04:38:51;;;;;;;24.55;22.50;;;;;;;17.82;50.38;99819.38;4957529;28;97012;-76
2023/05/23 04:41:22;;;;;;;24.08;21.92;;;;;;;17.74;50.49;99842.94;4956382;28;101441;-76
2023/05/23 04:43:53;;;;;;;26.00;22.92;;;;;;;18.04;49.74;99831.13;4972139;28;97862;-76
2023/05/23 04:46:44;;;;;;;23.30;21.25;;;;;;;18.02;49.95;99833.03;4984153;28;97012;-76
2023/05/23 04:49:21;;;;;;;22.50;20.60;;;;;;;18.43;49.48;99811.38;4948861;28;96979;-76
2023/05/23 04:51:47;;;;;;;23.73;21.40;;;;;;;18.44;49.21;99826.38;4953346;28;101895;-78
2023/05/23 04:54:26;;;;;;;25.48;22.33;;;;;;;18.07;49.80;99801.69;4936876;28;99897;-78
2023/05/23 04:56:53;;;;;;;23.15;21.17;;;;;;;18.36;50.83;99782.75;4936664;28;96796;-82
2023/05/23 04:59:20;;;;;;;23.60;21.70;;;;;;;18.76;49.40;99794.75;4953412;28;97516;-84
2023/05/23 05:01:45;;;;;;;24.25;21.20;;;;;;;19.08;48.12;99817.16;4955430;28;100943;-81
2023/05/23 05:04:12;;;;;;;24.05;21.92;;;;;;;19.32;47.03;99787.81;4933280;28;101568;-83
2023/05/23 05:06:40;;;;;;;22.92;21.02;;;;;;;19.53;47.53;99811.88;4955523;28;97299;-82
2023/05/23 05:09:07;;;;;;;22.98;20.67;;;;;;;19.97;46.27;99808.31;4956818;28;96942;-80
2023/05/23 05:11:34;;;;;;;23.60;21.73;;;;;;;20.00;46.72;99809.91;4967238;28;102004;-81
2023/05/23 05:13:59;;;;;;;23.75;21.60;;;;;;;19.60;46.40;99807.75;4953950;28;101145;-81
2023/05/23 05:16:25;;;;;;;27.33;21.27;;;;;;;19.96;45.94;99809.31;4953269;28;98054;-82
2023/05/23 05:18:51;;;;;;;26.25;22.02;;;;;;;20.39;45.97;99800.47;4938060;28;97237;-82
2023/05/23 05:21:18;;;;;;;23.92;21.95;;;;;;;20.41;45.09;99802.97;4938272;28;101674;-80
2023/05/23 05:23:43;;;;;;;23.48;21.30;;;;;;;20.86;44.23;99784.97;4953511;28;101617;-81
2023/05/23 05:26:09;;;;;;;22.13;20.42;;;;;;;20.75;43.94;99807.22;4968669;28;97356;-81
2023/05/23 05:28:35;;;;;;;23.52;21.42;;;;;;;21.55;43.05;99805.69;4971043;28;96900;-81
2023/05/23 05:31:03;;;;;;;24.33;22.30;;;;;;;21.36;42.52;99797.59;4956101;28;101473;-81
2023/05/23 05:33:35;;;;;;;;;;;;;;;21.62;42.51;99803.34;4971320;28;102033;-82
2023/05/23 05:36:08;;;;;;;22.77;20.60;;;;;;;21.88;42.59;99798.34;4951621;28;97016;-81
2023/05/23 05:38:34;;;;;;;24.00;21.67;;;;;;;23.11;41.14;99787.09;4940155;28;98092;-82
2023/05/23 05:41:00;;;;;;;24.38;22.15;;;;;;;22.79;40.65;99783.75;4971930;28;100845;-81
2023/05/23 05:43:29;;;;;;;24.52;22.30;;;;;;;23.67;39.79;99783.47;4938063;28;101711;-81
2023/05/23 05:45:55;;;;;;;28.63;21.63;;;;;;;25.22;37.07;99784.94;4955241;28;97076;-81
2023/05/23 05:48:21;;;;;;;24.77;22.52;;;;;;;25.93;35.09;99788.25;4937871;28;96886;-82
2023/05/23 05:50:48;;;;;;;24.45;22.38;;;;;;;26.45;34.46;99788.00;4931097;28;100755;-82
2023/05/23 05:53:14;;;;;;;25.08;22.63;;;;;;;28.17;32.34;99785.69;4947934;28;101179;-81
2023/05/23 05:55:39;;;;;;;24.33;22.33;;;;;;;28.83;31.22;99788.75;4932719;28;97013;-82
2023/05/23 05:58:05;;;;;;;30.02;23.58;;;;;;;29.65;29.41;99784.38;4939900;28;96990;-82
2023/05/23 06:00:45;;;;;;;25.07;23.00;;;;;;;32.37;27.07;99771.94;4942975;28;99059;-82
2023/05/23 06:03:11;;;;;;;25.83;23.75;;;;;;;32.78;25.95;99769.03;4955889;28;98084;-81
2023/05/23 06:05:51;;;;;;;;;;;;;;;31.89;26.90;99772.88;4932568;28;96956;-81
2023/05/23 06:08:17;;;;;;;26.33;23.67;;;;;;;31.80;26.58;99760.53;4955578;28;98125;-81
2023/05/23 06:10:42;;;;;;;26.33;23.73;;;;;;;32.85;25.86;99758.19;4962088;28;101504;-81
2023/05/23 06:13:08;;;;;;;25.75;23.45;;;;;;;31.10;27.49;99770.59;4940296;28;99246;-82
2023/05/23 06:15:35;;;;;;;26.48;24.38;;;;;;;28.52;30.23;99772.66;4935829;28;97014;-81
2023/05/23 06:18:01;;;;;;;25.55;23.13;;;;;;;25.99;34.31;99774.16;4954782;28;97297;-81
2023/05/23 06:20:28;;;;;;;25.25;23.05;;;;;;;25.96;34.84;99775.31;4955118;28;101269;-81
2023/05/23 06:22:55;;;;;;;20.35;18.35;;;;;;;26.58;34.16;99766.84;4955940;28;101622;-81
2023/05/23 06:25:21;;;;;;;19.73;17.58;;;;;;;25.87;34.58;99768.25;4955794;28;97044;-81
2023/05/23 06:27:47;;;;;;;20.42;18.38;;;;;;;26.08;35.01;99788.47;4956235;28;97143;-81
2023/05/23 06:30:13;;;;;;;20.08;18.23;;;;;;;26.07;34.79;99776.03;4932282;28;101311;-81
2023/05/23 06:32:40;;;;;;;23.63;19.60;;;;;;;24.56;37.38;99770.19;4936676;28;101705;-78
2023/05/23 06:35:06;;;;;;;27.25;17.95;;;;;;;25.70;35.72;99772.69;4952799;28;97327;-80
2023/05/23 06:37:33;;;;;;;19.20;17.40;;;;;;;27.09;33.88;99778.22;4951763;28;97131;-80
2023/05/23 06:39:59;;;;;;;19.15;17.48;;;;;;;28.40;31.70;99768.69;4954549;28;100054;-82
2023/05/23 06:42:24;;;;;;;19.65;17.60;;;;;;;32.98;26.60;99774.47;4955041;28;101419;-82
2023/05/23 06:45:09;;;;;;;20.08;18.27;;;;;;;36.09;23.35;99757.91;4944639;28;97729;-81
2023/05/23 06:47:36;;;;;;;20.77;18.98;;;;;;;38.83;20.88;99757.66;4989267;28;97267;-82
2023/05/23 06:50:02;;;;;;;21.35;18.17;;;;;;;36.86;22.53;99749.75;4953207;28;101311;-82
2023/05/23 06:52:28;;;;;;;21.27;18.25;;;;;;;32.45;26.33;99750.03;4971808;28;101974;-81
2023/05/23 06:54:54;;;;;;;19.52;17.55;;;;;;;30.66;28.56;99753.59;4956882;28;98257;-81
2023/05/23 06:57:19;;;;;;;20.02;16.63;;;;;;;29.56;30.47;99751.97;4942652;28;96990;-81
2023/05/23 06:59:45;;;;;;;19.75;17.95;;;;;;;28.64;31.12;99736.09;4956306;28;101895;-81
2023/05/23 07:02:10;;;;;;;22.55;19.85;;;;;;;28.58;32.09;99738.69;4976063;28;98061;-83
2023/05/23 07:04:36;;;;;;;20.23;18.08;;;;;;;31.11;29.20;99740.56;4956649;28;96971;-80
2023/05/23 07:07:08;;;;;;;20.33;18.58;;;;;;;36.62;22.84;99744.25;4938524;28;97349;-82
2023/05/23 07:09:34;;;;;;;22.55;20.38;;;;;;;40.64;19.41;99741.97;4935737;28;102034;-81
2023/05/23 07:12:07;;;;;;;19.77;18.17;;;;;;;44.53;16.59;99722.34;4944803;28;101766;-80
2023/05/23 07:14:37;;;;;;;20.15;18.38;;;;;;;43.99;16.88;99726.13;4956673;28;96795;-82
2023/05/23 07:17:03;;;;;;;18.80;17.00;;;;;;;46.74;14.89;99718.22;4953443;28;97473;-83
2023/05/23 07:19:30;;;;;;;19.73;18.15;;;;;;;48.85;13.48;99707.47;4952482;28;100168;-84
2023/05/23 07:21:56;;;;;;;18.15;16.55;;;;;;;48.97;13.50;99708.84;4954539;28;100405;-84
2023/05/23 07:24:21;;;;;;;17.90;16.33;;;;;;;48.03;13.37;99698.47;4956877;28;97784;-83
2023/05/23 07:26:47;;;;;;;18.65;17.02;;;;;;;46.04;15.08;99703.31;4971429;28;97111;-84
2023/05/23 07:29:13;;;;;;;19.42;17.50;;;;;;;41.07;18.26;99698.75;4937339;28;101061;-83
2023/05/23 07:31:39;;;;;;;18.55;16.80;;;;;;;35.44;22.45;99706.69;4939344;28;101153;-83
2023/05/23 07:34:06;;;;;;;17.60;16.20;;;;;;;32.92;25.55;99691.88;4955472;28;97205;-83
2023/05/23 07:36:49;;;;;;;18.20;16.67;;;;;;;31.56;27.56;99710.34;4954619;28;97307;-83
2023/05/23 07:39:20;;;;;;;18.42;17.00;;;;;;;30.11;29.10;99701.00;4940798;28;101414;-83
2023/05/23 07:41:49;;;;;;;24.70;17.10;;;;;;;29.36;30.45;99707.66;4941107;28;101609;-82
2023/05/23 07:44:18;;;;;;;18.73;16.85;;;;;;;28.46;31.73;99708.59;4958911;28;97722;-79
2023/05/23 07:46:43;;;;;;;19.33;17.50;;;;;;;27.03;33.70;99708.06;4952487;28;98063;-81
2023/05/23 07:49:09;;;;;;;18.75;16.98;;;;;;;26.72;34.21;99707.94;4959013;28;101251;-83
2023/05/23 07:51:35;;;;;;;20.02;16.63;;;;;;;25.80;35.50;99708.03;4931540;28;101424;-81
2023/05/23 07:54:00;;;;;;;18.45;16.70;;;;;;;25.60;36.12;99709.34;4950262;28;97516;-83
2023/05/23 07:56:26;;;;;;;17.38;15.88;;;;;;;26.05;35.70;99718.88;4921738;28;97344;-81
2023/05/23 07:58:52;;;;;;;17.13;15.57;;;;;;;26.18;36.32;99732.69;4960143;28;98726;-81
2023/05/23 08:01:19;;;;;;;28.33;16.27;;;;;;;26.02;36.62;99711.97;4952543;28;101850;-82
2023/05/23 08:04:01;;;;;;;18.83;16.23;;;;;;;26.04;36.54;99726.13;4943516;28;98063;-84
2023/05/23 08:06:39;;;;;;;17.77;15.27;;;;;;;26.19;36.69;99743.25;4950758;28;97453;-81
2023/05/23 08:09:08;;;;;;;18.13;16.43;;;;;;;28.36;33.22;99726.88;4950534;28;101868;-84
2023/05/23 08:11:38;;;;;;;17.92;16.10;;;;;;;32.05;28.85;99722.81;4952400;28;101746;-83
2023/05/23 08:14:05;;;;;;;18.00;16.15;;;;;;;29.86;30.99;99729.47;4947476;28;97467;-83
2023/05/23 08:16:36;;;;;;;17.52;14.38;;;;;;;28.50;33.66;99722.56;4960291;28;97163;-84
2023/05/23 08:19:04;;;;;;;19.52;14.55;;;;;;;27.69;34.08;99739.13;4965570;28;102036;-83
2023/05/23 08:21:30;;;;;;;16.52;15.05;;;;;;;27.16;35.32;99753.31;4932508;28;100801;-84
2023/05/23 08:23:57;;;;;;;16.33;14.70;;;;;;;26.46;36.49;99754.69;4935463;28;97278;-82
2023/05/23 08:26:23;;;;;;;19.60;15.30;;;;;;;25.96;37.63;99756.50;4925704;28;97215;-82
2023/05/23 08:28:50;;;;;;;17.38;15.57;;;;;;;25.61;38.42;99760.25;4968219;28;100411;-80
2023/05/23 08:31:16;;;;;;;17.42;15.63;;;;;;;25.37;39.58;99762.84;4939300;28;101525;-81
2023/05/23 08:33:43;;;;;;;18.05;16.17;;;;;;;25.12;39.98;99743.03;4965834;28;97306;-81
2023/05/23 08:36:09;;;;;;;17.98;16.30;;;;;;;25.17;40.67;99763.06;4936969;28;97819;-81
2023/05/23 08:38:34;;;;;;;18.08;16.02;;;;;;;25.07;40.34;99756.94;4951724;28;101603;-82
2023/05/23 08:41:22;;;;;;;21.25;15.15;;;;;;;25.00;40.78;99759.41;4964425;28;101828;-81
2023/05/23 08:43:51;;;;;;;17.85;15.05;;;;;;;24.80;40.77;99760.63;4961478;28;97309;-80
2023/05/23 08:46:23;;;;;;;19.05;16.77;;;;;;;24.51;40.48;99756.38;4946463;28;97299;-81
2023/05/23 08:48:53;;;;;;;19.20;17.10;;;;;;;24.24;40.67;99757.31;4942526;28;101301;-81
2023/05/23 08:51:25;;;;;;;16.35;14.77;;;;;;;24.23;40.99;99769.03;4928064;28;101131;-80
2023/05/23 08:53:52;;;;;;;17.38;15.75;;;;;;;24.05;41.84;99762.81;4949914;28;97470;-80
2023/05/23 08:56:19;;;;;;;20.13;16.60;;;;;;;23.84;42.20;99769.31;4942951;28;97554;-81
2023/05/23 08:58:46;;;;;;;18.27;15.57;;;;;;;23.27;42.87;99772.13;4964858;28;101859;-81
2023/05/23 09:01:17;;;;;;;18.67;16.75;;;;;;;23.20;44.16;99771.00;4966334;28;99503;-81
2023/05/23 09:03:43;;;;;;;19.90;18.05;;;;;;;22.68;44.59;99775.88;4940302;28;97260;-80
2023/05/23 09:06:17;;;;;;;21.98;17.40;;;;;;;22.76;44.73;99764.47;4951214;28;97437;-80
2023/05/23 09:08:45;;;;;;;17.38;15.70;;;;;;;22.73;45.43;99770.13;4937490;28;101269;-79
2023/05/23 09:11:12;;;;;;;18.88;16.60;;;;;;;22.75;45.82;99777.03;4955193;28;101335;-79
2023/05/23 09:13:41;;;;;;;19.42;17.48;;;;;;;22.71;46.64;99769.41;4952919;28;98133;-80
2023/05/23 09:16:09;;;;;;;;;;;;;;;22.74;47.73;99777.97;4973155;28;98050;-79
2023/05/23 09:18:43;;;;;;;19.73;18.02;;;;;;;22.68;49.26;99762.50;4956412;28;101957;-79
2023/05/23 09:21:12;;;;;;;21.63;18.10;;;;;;;22.75;49.87;99778.84;4941661;28;101238;-79
2023/05/23 09:23:47;;;;;;;19.83;17.83;;;;;;;22.82;51.65;99788.81;4941726;28;97033;-80
2023/05/23 09:26:13;;;;;;;22.05;17.98;;;;;;;22.78;52.66;99795.47;4956408;28;97197;-80
2023/05/23 09:28:41;;;;;;;19.50;17.42;;;;;;;22.71;53.45;99785.47;4971189;28;101178;-83
2023/05/23 09:31:08;;;;;;;21.45;17.63;;;;;;;22.67;53.56;99790.25;4938820;28;102020;-83
2023/05/23 09:33:45;;;;;;;20.20;18.13;;;;;;;22.65;54.13;99786.88;4949356;28;97414;-83
2023/05/23 09:36:11;;;;;;;20.35;18.23;;;;;;;22.58;55.37;99791.13;4960115;28;97112;-80
2023/05/23 09:38:41;;;;;;;20.88;19.00;;;;;;;22.50;56.30;99790.97;4937701;28;101012;-78
2023/05/23 09:41:11;;;;;;;19.95;17.90;;;;;;;22.41;55.61;99795.34;4947678;28;101374;-77
2023/05/23 09:43:38;;;;;;;20.10;18.20;;;;;;;22.30;54.87;99798.97;4936704;28;97209;-76
2023/05/23 09:46:10;;;;;;;22.35;18.70;;;;;;;22.26;54.91;99800.25;4941237;28;97538;-77
2023/05/23 09:48:36;;;;;;;22.63;19.58;;;;;;;22.19;55.82;99793.78;4963326;28;101091;-81
2023/05/23 09:51:03;;;;;;;30.95;20.42;;;;;;;22.15;57.02;99795.84;4939881;28;100192;-81
2023/05/23 09:53:29;;;;;;;24.65;20.48;;;;;;;22.07;56.91;99803.72;4950675;28;97910;-82
2023/05/23 09:55:57;;;;;;;22.88;20.15;;;;;;;22.15;56.79;99801.19;4950622;28;97338;-81
2023/05/23 09:58:26;;;;;;;22.40;20.40;;;;;;;22.15;56.40;99806.53;4950995;28;101213;-79
2023/05/23 10:00:53;;;;;;;23.48;21.17;;;;;;;21.99;56.37;99800.03;4951234;28;101378;-79
2023/05/23 10:03:22;;;;;;;22.75;20.50;;;;;;;21.89;55.78;99798.19;4945850;28;97350;-80
2023/05/23 10:05:50;;;;;;;23.35;20.95;;;;;;;22.00;55.70;99791.91;4962298;28;97508;-79
2023/05/23 10:08:35;;;;;;;22.30;20.15;;;;;;;21.37;56.61;99802.81;4953373;28;101315;-80
2023/05/23 10:11:32;;;;;;;22.98;20.52;;;;;;;21.14;55.58;99809.25;4945877;28;99844;-79
2023/05/23 10:14:00;;;;;;;22.92;20.73;;;;;;;21.46;55.14;99798.47;4939256;28;97475;-77
2023/05/23 10:16:39;;;;;;;22.67;19.90;;;;;;;21.75;55.10;99801.25;4927045;28;97387;-79
2023/05/23 10:19:11;;;;;;;27.60;22.48;;;;;;;21.93;55.32;99793.41;4934252;28;101386;-79
2023/05/23 10:21:44;;;;;;;23.17;21.02;;;;;;;21.81;54.15;99784.69;4944703;28;101878;-79
2023/05/23 10:24:11;;;;;;;22.88;20.58;;;;;;;22.17;54.05;99795.75;4931285;28;97213;-79
2023/05/23 10:26:36;;;;;;;22.75;20.65;;;;;;;21.84;54.60;99811.13;4948010;28;96911;-79
2023/05/23 10:29:04;;;;;;;29.38;20.50;;;;;;;21.95;54.55;99796.81;4952225;28;100819;-78
2023/05/23 10:31:30;;;;;;;23.70;21.48;;;;;;;22.29;53.52;99796.47;4968990;28;100841;-79
2023/05/23 10:34:04;;;;;;;22.60;20.08;;;;;;;22.19;53.11;99784.91;4985886;28;97595;-79
2023/05/23 10:36:39;;;;;;;24.63;22.08;;;;;;;22.45;53.02;99796.72;4954364;28;97451;-79
2023/05/23 10:39:12;;;;;;;25.23;22.73;;;;;;;22.60;52.41;99799.81;4951417;28;101137;-79
2023/05/23 10:41:45;;;;;;;22.67;20.67;;;;;;;23.13;51.53;99779.78;4949367;28;97469;-79
2023/05/23 10:44:17;;;;;;;22.17;19.88;;;;;;;23.48;49.59;99790.63;4956562;28;97160;-79
2023/05/23 10:46:59;;;;;;;24.80;22.55;;;;;;;23.97;49.06;99779.69;4964523;28;97079;-78
2023/05/23 10:49:42;;;;;;;21.15;19.35;;;;;;;24.38;48.73;99759.44;4969278;28;98257;-79
2023/05/23 10:52:10;;;;;;;23.27;20.58;;;;;;;24.07;48.52;99785.78;4934327;28;101102;-79
2023/05/23 10:55:02;;;;;;;20.80;18.80;;;;;;;24.50;47.66;99783.38;4930551;28;97159;-79
2023/05/23 10:57:27;;;;;;;19.80;18.08;;;;;;;24.92;47.27;99780.84;4968825;28;97560;-79
2023/05/23 10:59:53;;;;;;;19.63;18.13;;;;;;;24.88;46.56;99770.59;4951390;28;101569;-79
2023/05/23 11:02:25;;;;;;;21.00;19.10;;;;;;;24.98;46.63;99766.78;4951471;28;101287;-79
2023/05/23 11:05:27;;;;;;;20.17;18.25;;;;;;;24.72;46.79;99784.72;4965892;28;97086;-79
2023/05/23 11:08:16;;;;;;;19.42;17.85;;;;;;;25.52;45.64;99775.50;4935193;28;97297;-78
2023/05/23 11:11:01;;;;;;;21.73;19.52;;;;;;;24.90;47.21;99779.31;4964189;28;97720;-80
2023/05/23 11:13:52;;;;;;;19.40;17.70;;;;;;;25.19;46.67;99779.00;4954890;28;100956;-79
2023/05/23 11:16:39;;;;;;;20.98;19.25;;;;;;;24.97;46.75;99767.78;4973242;28;96843;-79
2023/05/23 11:19:17;;;;;;;22.48;20.50;;;;;;;24.93;47.22;99774.50;4951922;28;98261;-79
2023/05/23 11:21:49;;;;;;;19.27;17.75;;;;;;;25.08;46.69;99767.53;4973977;28;98081;-79